Boulder, Utah
Current Conditions -  °F | °C
As of 9:53 AM on Friday 31 Oct 2014 (Local Time) from KBCE Reporting Station
Clear Clear  
Wind Chill: 52°   Ceiling: Unl
Heat Index: 52°   Visibility: 10mi
Dew Point: 18°   Wind: 17mph
Humidity: 26%   Direction: 150°SSE
Pressure: 30.25"   Gusts: 23mph
Location:  37.93°N, 111.43°W
Report Text: KBCE 311553Z AUTO 15015G20KT 10SM CLR 11/M08 A3025 RMK AO2 SNE03 SLP186 P0000 T01111078 TSNO
Loading
Personal Weather Stations






























Interactive Weather Map
Tropical Storm Tracking
New forecast layout! Learn more

10-Day Weather Forecast

Advertisements
Track Severe Weather on mobile